Time;durP1;ratioP1;P1;durP2;ratioP2;P2;SDS_P1;SDS_P2;PMS_P1;PMS_P2;Temp;Humidity;BMP_temperature;BMP_pressure;BME280_temperature;BME280_humidity;BME280_pressure;Samples;Min_cycle;Max_cycle;Signal;HPM_P1;HPM_P2
2023/07/26 00:00:05;;;;;;;6.60;3.70;;;17.30;99.90;;;;;;2702378;39;21707;31
2023/07/26 00:02:49;;;;;;;4.60;3.80;;;17.30;99.90;;;;;;2586276;54;20061;31
2023/07/26 00:05:26;;;;;;;6.97;3.90;;;17.30;99.90;;;;;;2683949;39;20519;31
2023/07/26 00:08:02;;;;;;;5.88;3.92;;;17.30;99.90;;;;;;2585094;54;20049;31
2023/07/26 00:10:37;;;;;;;5.60;4.10;;;17.20;99.90;;;;;;2585017;54;20923;31
2023/07/26 00:13:13;;;;;;;5.70;3.50;;;17.20;99.90;;;;;;2584907;54;20041;31
2023/07/26 00:15:49;;;;;;;6.45;3.80;;;17.20;99.90;;;;;;2745706;31;20035;31
2023/07/26 00:18:27;;;;;;;7.47;3.72;;;17.20;99.90;;;;;;2683933;39;20417;31
2023/07/26 00:21:03;;;;;;;6.43;3.40;;;17.10;99.90;;;;;;2683069;39;20460;31
2023/07/26 00:23:40;;;;;;;6.13;3.53;;;17.10;99.90;;;;;;2601195;47;20030;31
2023/07/26 00:26:15;;;;;;;6.47;3.77;;;17.10;99.90;;;;;;2584915;54;20049;31
2023/07/26 00:28:51;;;;;;;5.57;3.60;;;17.10;99.90;;;;;;2585282;54;20027;31
2023/07/26 00:31:27;;;;;;;9.13;3.92;;;17.00;99.90;;;;;;2604671;47;21108;31
2023/07/26 00:34:04;;;;;;;8.00;4.00;;;17.00;99.90;;;;;;2702641;39;21471;31
2023/07/26 00:36:44;;;;;;;4.93;3.35;;;17.00;99.90;;;;;;2604843;47;20251;31
2023/07/26 00:39:22;;;;;;;5.30;3.70;;;17.00;99.90;;;;;;2604401;47;20836;31
2023/07/26 00:41:58;;;;;;;4.85;3.45;;;16.90;99.90;;;;;;2585024;54;21254;31
2023/07/26 00:44:35;;;;;;;6.25;3.90;;;16.90;99.90;;;;;;2585595;54;20038;31
2023/07/26 00:47:08;;;;;;;6.25;3.90;;;16.90;99.90;;;;;;2585741;54;20744;31
2023/07/26 00:49:45;;;;;;;8.10;4.20;;;16.90;99.90;;;;;;2585989;54;20026;31
2023/07/26 00:52:22;;;;;;;4.63;3.50;;;16.80;99.90;;;;;;2586263;54;20053;31
2023/07/26 00:54:57;;;;;;;9.40;3.30;;;16.80;99.90;;;;;;2605106;46;20057;31
2023/07/26 00:57:37;;;;;;;7.47;3.60;;;16.80;99.90;;;;;;2586761;54;20026;31
2023/07/26 01:00:13;;;;;;;8.38;3.97;;;16.70;99.90;;;;;;2585857;54;20089;31
2023/07/26 01:02:55;;;;;;;7.60;3.50;;;16.70;99.90;;;;;;2586803;54;20919;31
2023/07/26 01:05:41;;;;;;;8.70;4.20;;;16.70;99.90;;;;;;2586734;54;20054;31
2023/07/26 01:08:20;;;;;;;6.25;3.60;;;16.70;99.90;;;;;;2587011;54;20037;31
2023/07/26 01:10:56;;;;;;;7.05;4.03;;;16.60;99.90;;;;;;2586769;54;20766;31
2023/07/26 01:13:40;;;;;;;6.05;3.65;;;16.60;99.90;;;;;;2586776;54;20731;31
2023/07/26 01:16:18;;;;;;;7.47;3.50;;;16.60;99.90;;;;;;2586967;54;20836;31
2023/07/26 01:18:54;;;;;;;4.20;3.30;;;16.60;99.90;;;;;;2586826;54;20022;31
2023/07/26 01:21:31;;;;;;;;;;;16.50;99.90;;;;;;2586643;54;20026;31
2023/07/26 01:24:11;;;;;;;4.32;2.95;;;16.50;99.90;;;;;;2586882;54;20656;31
2023/07/26 01:26:44;;;;;;;6.60;2.92;;;16.50;99.90;;;;;;2586666;54;20859;31
2023/07/26 01:29:18;;;;;;;4.03;2.25;;;16.40;99.90;;;;;;2601653;46;20851;31
2023/07/26 01:31:52;;;;;;;6.20;2.65;;;16.40;99.90;;;;;;2585930;54;20030;31
2023/07/26 01:34:27;;;;;;;3.20;2.33;;;16.40;99.90;;;;;;2605006;46;20908;31
2023/07/26 01:37:03;;;;;;;4.03;2.63;;;16.40;99.90;;;;;;2586468;54;20959;31
2023/07/26 01:39:42;;;;;;;;;;;16.30;99.90;;;;;;2586932;54;20048;31
2023/07/26 01:42:17;;;;;;;6.75;2.88;;;16.20;99.90;;;;;;2585741;54;19935;31
2023/07/26 01:44:52;;;;;;;8.07;2.60;;;16.20;99.90;;;;;;2586209;54;20903;31
2023/07/26 01:47:30;;;;;;;4.47;2.88;;;16.10;99.90;;;;;;2586575;54;20027;31
2023/07/26 01:50:04;;;;;;;4.60;3.10;;;16.10;99.90;;;;;;2604777;46;20890;31
2023/07/26 01:52:38;;;;;;;5.30;3.10;;;16.10;99.90;;;;;;2600225;46;21459;31
2023/07/26 01:55:17;;;;;;;5.18;3.03;;;16.10;99.90;;;;;;2605416;46;20849;31
2023/07/26 01:57:54;;;;;;;4.72;2.88;;;16.00;99.90;;;;;;2586508;54;20518;31
2023/07/26 02:00:27;;;;;;;5.60;3.03;;;16.00;99.90;;;;;;2586393;54;20033;31
2023/07/26 02:03:02;;;;;;;6.10;3.30;;;15.90;99.90;;;;;;2605058;46;20072;31
2023/07/26 02:08:26;;;;;;;5.82;3.40;;;15.80;99.90;;;;;;2586691;54;20766;31
2023/07/26 02:11:08;;;;;;;4.43;3.55;;;15.80;99.90;;;;;;2586506;54;20030;31
2023/07/26 02:13:46;;;;;;;7.63;3.65;;;15.70;99.90;;;;;;2586827;54;20759;31
2023/07/26 02:16:22;;;;;;;9.57;3.88;;;15.70;99.90;;;;;;2586467;54;20037;31
2023/07/26 02:18:55;;;;;;;7.05;4.20;;;15.70;99.90;;;;;;2605119;46;20931;31
2023/07/26 02:21:30;;;;;;;4.90;3.63;;;15.60;99.90;;;;;;2586800;54;20050;31
2023/07/26 02:24:07;;;;;;;;;;;15.60;99.90;;;;;;2586644;54;19938;31
2023/07/26 02:26:46;;;;;;;6.28;4.03;;;15.50;99.90;;;;;;2586645;54;20054;31
2023/07/26 02:29:23;;;;;;;8.52;4.75;;;15.50;99.90;;;;;;2586085;54;20926;31
2023/07/26 02:32:02;;;;;;;10.13;4.43;;;15.50;99.90;;;;;;2585598;54;20868;31
2023/07/26 02:34:37;;;;;;;7.15;4.40;;;15.50;99.90;;;;;;2586297;54;20059;31
2023/07/26 02:37:15;;;;;;;6.03;4.30;;;15.50;99.90;;;;;;2586197;54;20030;31
2023/07/26 02:39:51;;;;;;;7.67;4.70;;;15.50;99.90;;;;;;2586119;54;19962;31
2023/07/26 02:42:32;;;;;;;9.90;4.85;;;15.50;99.90;;;;;;2683962;39;20377;31
2023/07/26 02:45:11;;;;;;;5.70;4.47;;;15.40;99.90;;;;;;2586378;54;20927;31
2023/07/26 02:47:47;;;;;;;7.65;5.22;;;15.50;99.90;;;;;;2586486;54;20954;31
2023/07/26 02:50:23;;;;;;;9.20;5.38;;;15.50;99.90;;;;;;2604620;46;20030;31
2023/07/26 02:52:59;;;;;;;6.15;5.30;;;15.40;99.90;;;;;;2586327;54;20911;31
2023/07/26 02:55:36;;;;;;;9.60;6.35;;;15.40;99.90;;;;;;2597375;46;20033;31
2023/07/26 02:58:14;;;;;;;10.07;5.70;;;15.40;99.90;;;;;;2599789;46;20832;31
2023/07/26 03:00:55;;;;;;;7.82;6.18;;;15.40;99.90;;;;;;2586289;54;20895;31
2023/07/26 03:03:32;;;;;;;13.95;6.80;;;15.40;99.90;;;;;;2586319;54;20030;31
2023/07/26 03:06:07;;;;;;;10.70;7.10;;;15.30;99.90;;;;;;2586277;54;20142;31
2023/07/26 03:08:44;;;;;;;8.17;6.83;;;15.30;99.90;;;;;;2585452;54;20063;31
2023/07/26 03:11:20;;;;;;;10.50;6.70;;;15.30;99.90;;;;;;2604455;46;20238;31
2023/07/26 03:14:00;;;;;;;8.70;6.80;;;15.30;99.90;;;;;;2586303;54;20261;31
2023/07/26 03:16:37;;;;;;;9.65;6.90;;;15.30;99.90;;;;;;2585361;54;20023;31
2023/07/26 03:19:13;;;;;;;11.00;6.77;;;15.20;99.90;;;;;;2586019;54;20814;31
2023/07/26 03:21:48;;;;;;;;;;;15.20;99.90;;;;;;2604503;46;20920;31
2023/07/26 03:24:28;;;;;;;8.90;6.80;;;15.20;99.90;;;;;;2599020;46;19997;31
2023/07/26 03:27:08;;;;;;;9.10;7.03;;;15.20;99.90;;;;;;2593851;46;20035;31
2023/07/26 03:29:47;;;;;;;13.80;6.65;;;15.30;99.90;;;;;;2586226;46;20068;31
2023/07/26 03:32:24;;;;;;;10.97;7.10;;;15.30;99.90;;;;;;2585317;54;20919;31
2023/07/26 03:35:05;;;;;;;10.88;7.53;;;15.30;99.90;;;;;;2584998;54;20068;31
2023/07/26 03:37:40;;;;;;;12.43;7.43;;;15.30;99.90;;;;;;2585204;54;20033;31
2023/07/26 03:40:22;;;;;;;9.00;6.70;;;15.30;99.90;;;;;;2585092;54;20027;31
2023/07/26 03:43:07;;;;;;;14.50;7.25;;;15.30;99.90;;;;;;2586094;54;20032;31
2023/07/26 03:45:46;;;;;;;10.53;7.40;;;15.30;99.90;;;;;;2586316;54;20662;31
2023/07/26 03:48:22;;;;;;;14.65;7.60;;;15.30;99.90;;;;;;2586012;54;20884;31
2023/07/26 03:50:57;;;;;;;12.00;7.60;;;15.30;99.90;;;;;;2604551;46;20042;31
2023/07/26 03:53:35;;;;;;;12.32;7.20;;;15.30;99.90;;;;;;2586095;54;21008;31
2023/07/26 03:56:22;;;;;;;10.32;7.03;;;15.30;99.90;;;;;;2586073;54;20117;31
2023/07/26 03:58:57;;;;;;;19.77;7.87;;;15.30;99.90;;;;;;2604524;46;20770;31
2023/07/26 04:01:40;;;;;;;12.88;6.90;;;15.40;99.90;;;;;;2586322;54;20727;31
2023/07/26 04:04:19;;;;;;;10.75;6.82;;;15.40;99.90;;;;;;2586021;54;20145;31
2023/07/26 04:07:02;;;;;;;11.75;7.20;;;15.30;99.90;;;;;;2604532;46;20070;31
2023/07/26 04:09:37;;;;;;;10.10;7.80;;;15.30;99.90;;;;;;2585665;54;20926;31
2023/07/26 04:12:19;;;;;;;13.63;7.82;;;15.30;99.90;;;;;;2604542;46;20065;31
2023/07/26 04:14:56;;;;;;;12.43;7.63;;;15.30;99.90;;;;;;2585457;54;20859;31
2023/07/26 04:17:38;;;;;;;12.17;7.60;;;15.40;99.90;;;;;;2586019;54;20026;31
2023/07/26 04:20:21;;;;;;;13.52;8.18;;;15.40;99.90;;;;;;2604549;47;21214;31
2023/07/26 04:22:58;;;;;;;13.70;8.60;;;15.30;99.90;;;;;;2586041;54;20038;31
2023/07/26 04:25:35;;;;;;;13.68;8.35;;;15.30;99.90;;;;;;2585924;54;21068;31
2023/07/26 04:28:20;;;;;;;15.55;8.25;;;15.30;99.90;;;;;;2586628;54;20037;31
2023/07/26 04:30:57;;;;;;;11.37;8.30;;;15.20;99.90;;;;;;2605147;46;20037;31
2023/07/26 04:33:42;;;;;;;14.45;8.75;;;15.20;99.90;;;;;;2605276;46;20894;31
2023/07/26 04:36:18;;;;;;;15.07;8.45;;;15.20;99.90;;;;;;2605655;46;20915;31
2023/07/26 04:38:55;;;;;;;15.00;8.52;;;15.20;99.90;;;;;;2605217;46;20052;31
2023/07/26 04:41:31;;;;;;;10.00;7.72;;;15.20;99.90;;;;;;2698373;39;21519;31
2023/07/26 04:44:06;;;;;;;15.05;7.97;;;15.20;99.90;;;;;;2586916;54;20954;31
2023/07/26 04:46:47;;;;;;;11.20;8.55;;;15.20;99.90;;;;;;2586907;54;20053;31
2023/07/26 04:49:28;;;;;;;9.70;7.50;;;15.20;99.90;;;;;;2586953;54;20116;31
2023/07/26 04:52:08;;;;;;;9.20;7.63;;;15.10;99.90;;;;;;2586929;54;20744;31
2023/07/26 04:54:48;;;;;;;13.02;8.48;;;15.10;99.90;;;;;;2684610;39;21563;31
2023/07/26 04:57:27;;;;;;;11.30;8.13;;;15.10;99.90;;;;;;2585876;54;20019;31
2023/07/26 05:00:05;;;;;;;9.70;7.68;;;15.10;99.90;;;;;;2585848;54;20026;31
2023/07/26 05:02:48;;;;;;;9.85;7.95;;;15.10;99.90;;;;;;2586801;54;20976;31
2023/07/26 05:05:28;;;;;;;12.65;8.48;;;15.10;99.90;;;;;;2605578;46;20851;31
2023/07/26 05:08:03;;;;;;;9.55;8.30;;;15.10;99.90;;;;;;2586798;54;20905;31
2023/07/26 05:10:41;;;;;;;8.65;7.40;;;15.10;99.90;;;;;;2586798;54;20922;31
2023/07/26 05:13:15;;;;;;;10.00;8.30;;;15.10;99.90;;;;;;2585798;54;20053;31
2023/07/26 05:15:55;;;;;;;11.02;8.63;;;15.20;99.90;;;;;;2604891;46;20059;31
2023/07/26 05:18:34;;;;;;;10.07;7.95;;;15.10;99.90;;;;;;2586543;54;20031;31
2023/07/26 05:21:09;;;;;;;11.30;9.10;;;15.20;99.90;;;;;;2586627;54;21562;31
2023/07/26 05:23:50;;;;;;;10.57;7.07;;;15.20;99.90;;;;;;2586977;54;20847;31
2023/07/26 05:26:28;;;;;;;12.48;8.45;;;15.20;99.90;;;;;;2684545;39;21517;31
2023/07/26 05:29:04;;;;;;;13.38;8.45;;;15.20;99.90;;;;;;2703156;39;21576;31
2023/07/26 05:31:41;;;;;;;13.00;9.55;;;15.20;99.90;;;;;;2586521;54;20081;31
2023/07/26 05:34:16;;;;;;;10.10;8.05;;;15.20;99.90;;;;;;2605125;46;20022;31
2023/07/26 05:36:54;;;;;;;12.60;9.45;;;15.30;99.90;;;;;;2586885;54;21555;31
2023/07/26 05:39:37;;;;;;;10.70;8.20;;;15.30;99.90;;;;;;2684462;39;21572;31
2023/07/26 05:42:12;;;;;;;11.13;8.60;;;15.30;99.90;;;;;;2586653;54;20033;31
2023/07/26 05:44:51;;;;;;;12.35;9.40;;;15.30;99.90;;;;;;2586751;54;20812;31
2023/07/26 05:47:30;;;;;;;12.82;9.73;;;15.30;99.90;;;;;;2586630;54;20023;31
2023/07/26 05:50:07;;;;;;;10.87;8.17;;;15.30;99.90;;;;;;2586522;54;21324;31
2023/07/26 05:52:47;;;;;;;10.73;8.00;;;15.30;99.90;;;;;;2586564;54;20033;31
2023/07/26 05:55:30;;;;;;;14.30;8.65;;;15.30;99.90;;;;;;2684431;39;21461;31
2023/07/26 05:58:06;;;;;;;12.75;8.70;;;15.30;99.90;;;;;;2605531;46;20889;31
2023/07/26 06:00:50;;;;;;;11.15;8.23;;;15.30;99.90;;;;;;2585542;54;20049;31
2023/07/26 06:03:29;;;;;;;8.60;7.10;;;15.30;99.90;;;;;;2587098;46;20871;31
2023/07/26 06:06:07;;;;;;;8.15;6.57;;;15.30;99.90;;;;;;2599680;46;20862;31
2023/07/26 06:08:46;;;;;;;9.00;7.00;;;15.30;99.90;;;;;;2586633;54;20547;31
2023/07/26 06:11:24;;;;;;;7.60;6.50;;;15.40;99.90;;;;;;2586582;54;20489;31
2023/07/26 06:14:01;;;;;;;11.95;6.30;;;15.40;99.90;;;;;;2585720;54;21218;31
2023/07/26 06:16:46;;;;;;;6.30;5.20;;;15.40;99.90;;;;;;2701997;39;20436;31
2023/07/26 06:19:33;;;;;;;10.30;7.50;;;15.40;99.90;;;;;;2586366;54;20242;31
2023/07/26 06:22:07;;;;;;;8.87;6.80;;;15.50;99.90;;;;;;2586137;54;20089;31
2023/07/26 06:24:46;;;;;;;10.85;6.70;;;15.50;99.90;;;;;;2604921;46;21237;31
2023/07/26 07:07:37;;;;;;;8.40;7.50;;;15.20;99.90;;;;;;2626545;53;20336;31
2023/07/26 07:10:16;;;;;;;7.97;6.00;;;15.70;99.90;;;;;;2592831;38;20405;31
2023/07/26 07:12:52;;;;;;;7.15;6.45;;;15.80;99.90;;;;;;2608292;46;21581;31
2023/07/26 07:15:33;;;;;;;11.30;6.70;;;15.80;99.90;;;;;;2589343;54;20027;31
2023/07/26 07:18:08;;;;;;;6.90;5.60;;;15.90;99.90;;;;;;2589945;54;20242;31
2023/07/26 07:20:58;;;;;;;10.18;6.30;;;15.80;99.90;;;;;;2608728;46;20871;31
2023/07/26 07:23:41;;;;;;;6.60;6.00;;;15.80;99.90;;;;;;2688229;38;22388;31
2023/07/26 07:26:22;;;;;;;7.85;6.97;;;15.80;99.90;;;;;;2608608;46;20037;31
2023/07/26 07:29:00;;;;;;;5.43;4.90;;;15.70;99.90;;;;;;2590305;54;20759;31
2023/07/26 07:31:33;;;;;;;7.03;5.95;;;15.70;99.90;;;;;;2590148;54;20030;31
2023/07/26 07:34:11;;;;;;;7.30;6.65;;;15.70;99.90;;;;;;2688317;38;20500;31
2023/07/26 07:36:50;;;;;;;8.10;6.15;;;15.80;99.90;;;;;;2758299;31;20539;31
2023/07/26 07:39:30;;;;;;;7.93;6.00;;;15.80;99.90;;;;;;2590279;54;20774;31
2023/07/26 07:42:14;;;;;;;7.43;5.60;;;15.70;99.90;;;;;;2590223;54;21710;31
2023/07/26 07:44:48;;;;;;;8.23;7.03;;;15.80;99.90;;;;;;2687833;38;20398;31
2023/07/26 07:47:25;;;;;;;10.83;7.43;;;15.80;99.90;;;;;;2588999;54;20030;31
2023/07/26 07:50:09;;;;;;;8.40;7.45;;;15.80;99.90;;;;;;2589052;54;20777;31
2023/07/26 07:52:50;;;;;;;7.70;6.75;;;15.80;99.90;;;;;;2589853;54;20105;31
2023/07/26 07:55:31;;;;;;;11.60;6.50;;;15.80;99.90;;;;;;2589109;54;20849;31
2023/07/26 07:58:19;;;;;;;8.98;6.40;;;15.90;99.90;;;;;;2593504;46;20046;31
2023/07/26 08:00:59;;;;;;;9.67;6.67;;;16.00;99.90;;;;;;2590025;54;20034;31
2023/07/26 08:03:40;;;;;;;9.30;7.38;;;16.00;99.90;;;;;;2608384;46;20026;31
2023/07/26 08:06:19;;;;;;;7.50;6.57;;;16.00;99.90;;;;;;2687647;38;21524;31
2023/07/26 08:08:56;;;;;;;9.18;7.07;;;16.10;99.90;;;;;;2586244;54;21168;31
2023/07/26 08:11:37;;;;;;;8.30;6.20;;;16.20;99.90;;;;;;2586527;54;20887;31
2023/07/26 08:14:18;;;;;;;8.15;6.95;;;16.30;99.90;;;;;;2586486;54;20892;31
2023/07/26 08:16:57;;;;;;;7.00;6.30;;;16.30;99.90;;;;;;2585455;54;20915;31
2023/07/26 08:19:33;;;;;;;8.25;6.00;;;16.40;99.90;;;;;;2586602;54;20907;31
2023/07/26 08:22:11;;;;;;;9.93;6.60;;;16.50;99.90;;;;;;2604491;46;20758;31
2023/07/26 08:24:50;;;;;;;7.70;6.85;;;16.60;99.90;;;;;;2585982;54;20941;31
2023/07/26 08:27:30;;;;;;;10.70;7.30;;;16.60;99.90;;;;;;2604430;46;20839;31
2023/07/26 08:30:07;;;;;;;9.05;7.13;;;16.70;99.90;;;;;;2586114;54;20060;31
2023/07/26 08:32:42;;;;;;;7.93;6.37;;;16.70;99.90;;;;;;2585462;54;20026;31
2023/07/26 08:35:16;;;;;;;8.85;6.80;;;16.80;99.90;;;;;;2585451;54;20031;31
2023/07/26 08:37:52;;;;;;;7.93;7.13;;;16.70;99.90;;;;;;2586143;54;20853;31
2023/07/26 08:40:37;;;;;;;10.20;8.30;;;16.70;99.90;;;;;;2590828;46;20031;31
2023/07/26 08:43:26;;;;;;;9.95;8.75;;;16.60;99.90;;;;;;2586101;54;20038;31
2023/07/26 08:46:05;;;;;;;9.10;8.20;;;16.60;99.90;;;;;;2604819;46;19934;31
2023/07/26 08:48:42;;;;;;;10.95;9.85;;;16.60;99.90;;;;;;2586336;54;20746;31
2023/07/26 08:51:21;;;;;;;11.70;9.48;;;16.50;99.90;;;;;;2585740;54;20030;31
2023/07/26 08:54:01;;;;;;;11.02;9.93;;;16.60;99.90;;;;;;2585367;54;20888;31
2023/07/26 08:56:36;;;;;;;11.48;10.43;;;16.50;99.90;;;;;;2604378;46;20033;31
2023/07/26 08:59:13;;;;;;;11.90;9.80;;;16.50;99.90;;;;;;2586240;54;20142;31
2023/07/26 09:01:54;;;;;;;9.40;6.30;;;16.50;99.90;;;;;;2586245;54;20255;31
2023/07/26 09:04:39;;;;;;;11.80;9.10;;;16.70;99.90;;;;;;2604728;46;20921;31
2023/07/26 09:07:19;;;;;;;11.80;8.10;;;16.70;99.90;;;;;;2586246;54;21013;31
2023/07/26 09:09:57;;;;;;;11.30;9.00;;;16.70;99.90;;;;;;2585387;54;22445;31
2023/07/26 09:12:34;;;;;;;10.32;8.50;;;16.70;99.90;;;;;;2586226;54;20258;31
2023/07/26 09:15:17;;;;;;;11.48;9.70;;;16.70;99.90;;;;;;2586035;54;20474;31
2023/07/26 09:17:54;;;;;;;13.13;8.35;;;16.80;99.90;;;;;;2585976;54;20903;31
2023/07/26 09:20:30;;;;;;;9.55;8.60;;;16.80;99.90;;;;;;2585028;54;20931;31
2023/07/26 09:23:10;;;;;;;11.32;8.00;;;16.90;99.90;;;;;;2585214;54;20897;31
2023/07/26 09:25:43;;;;;;;11.98;7.63;;;17.10;99.90;;;;;;2604891;46;20050;31
2023/07/26 09:28:21;;;;;;;13.07;6.47;;;17.20;99.90;;;;;;2586104;54;20085;31
2023/07/26 09:31:01;;;;;;;6.57;5.63;;;17.50;99.90;;;;;;2586001;54;20100;31
2023/07/26 09:33:36;;;;;;;9.05;6.50;;;17.80;99.90;;;;;;2585150;54;20061;31
2023/07/26 09:36:13;;;;;;;8.50;6.70;;;18.00;99.90;;;;;;2586224;54;20026;31
2023/07/26 09:38:45;;;;;;;7.40;6.10;;;18.00;99.90;;;;;;2586067;54;21119;31
2023/07/26 09:41:31;;;;;;;9.43;5.53;;;18.00;99.90;;;;;;2586233;54;20137;31
2023/07/26 09:44:08;;;;;;;6.30;5.40;;;18.00;99.90;;;;;;2586053;54;20114;31
2023/07/26 09:46:55;;;;;;;8.15;5.13;;;17.90;99.90;;;;;;2585189;54;21237;31
2023/07/26 09:49:33;;;;;;;9.52;4.65;;;18.00;99.90;;;;;;2586206;54;20754;31
2023/07/26 09:52:15;;;;;;;7.03;4.15;;;18.00;99.90;;;;;;2585891;54;20033;31
2023/07/26 09:54:48;;;;;;;8.57;4.28;;;18.10;99.90;;;;;;2586342;54;20801;31
2023/07/26 09:57:22;;;;;;;5.28;3.92;;;18.20;99.90;;;;;;2585645;54;20045;31
2023/07/26 10:00:01;;;;;;;8.00;3.63;;;18.40;99.90;;;;;;2597477;46;20914;31
2023/07/26 10:02:42;;;;;;;5.20;3.15;;;18.40;99.90;;;;;;2585257;54;20778;31
2023/07/26 10:05:19;;;;;;;4.85;2.55;;;18.50;99.90;;;;;;2586103;54;20113;31
2023/07/26 10:07:57;;;;;;;9.75;2.70;;;18.40;99.90;;;;;;2586139;54;20032;31
2023/07/26 10:10:35;;;;;;;6.05;2.95;;;18.40;99.90;;;;;;2604387;46;20029;31
2023/07/26 10:13:12;;;;;;;11.65;3.05;;;18.30;99.90;;;;;;2589833;46;20905;31
2023/07/26 10:15:47;;;;;;;4.80;2.63;;;18.20;99.90;;;;;;2585435;54;20027;31
2023/07/26 10:18:27;;;;;;;4.90;2.20;;;18.20;99.90;;;;;;2586007;54;20072;31
2023/07/26 10:21:04;;;;;;;5.45;2.30;;;18.20;99.90;;;;;;2585761;54;20101;31
2023/07/26 10:23:37;;;;;;;4.72;1.92;;;18.40;99.90;;;;;;2585859;54;20093;31
2023/07/26 10:26:12;;;;;;;5.95;2.10;;;18.60;99.90;;;;;;2585935;54;20781;31
2023/07/26 10:28:51;;;;;;;4.65;1.95;;;18.80;99.90;;;;;;2585990;54;20122;31
2023/07/26 10:31:26;;;;;;;5.55;2.00;;;19.00;99.90;;;;;;2585565;54;20109;31
2023/07/26 10:34:07;;;;;;;6.78;2.00;;;19.10;99.90;;;;;;2585540;54;20087;31
2023/07/26 10:36:42;;;;;;;5.85;1.90;;;19.10;99.90;;;;;;2585898;54;20026;31
2023/07/26 10:39:22;;;;;;;4.75;1.50;;;19.10;99.90;;;;;;2584973;54;20109;31
2023/07/26 10:41:56;;;;;;;8.17;1.70;;;19.10;99.90;;;;;;2585946;54;20143;31
2023/07/26 10:44:32;;;;;;;3.70;1.50;;;19.10;99.90;;;;;;2683576;39;22392;31
2023/07/26 10:47:10;;;;;;;5.77;1.80;;;19.30;99.90;;;;;;2604568;46;20887;31
2023/07/26 10:49:47;;;;;;;9.80;1.53;;;19.40;99.90;;;;;;2585871;54;20777;31
2023/07/26 10:52:24;;;;;;;4.20;1.30;;;19.40;99.90;;;;;;2585810;54;20026;31
2023/07/26 10:55:10;;;;;;;5.82;1.27;;;19.50;99.90;;;;;;2683817;39;20476;31
2023/07/26 10:57:50;;;;;;;4.38;1.05;;;19.50;99.90;;;;;;2585902;54;20022;31
2023/07/26 11:00:28;;;;;;;2.50;1.00;;;19.40;99.90;;;;;;2586043;54;20109;31
2023/07/26 11:03:05;;;;;;;2.53;1.27;;;19.50;99.90;;;;;;2586084;54;20895;31
2023/07/26 11:05:42;;;;;;;6.77;1.53;;;19.50;99.90;;;;;;2586176;54;20950;31
2023/07/26 11:08:16;;;;;;;5.00;1.30;;;19.70;99.90;;;;;;2585857;54;20287;31
2023/07/26 11:10:54;;;;;;;5.97;1.00;;;19.80;99.90;;;;;;2584769;54;21493;31
2023/07/26 11:13:32;;;;;;;4.47;1.00;;;19.80;99.90;;;;;;2585988;54;20018;31
2023/07/26 11:16:05;;;;;;;2.80;0.97;;;19.70;99.90;;;;;;2604036;47;19942;31
2023/07/26 11:18:53;;;;;;;2.80;1.13;;;19.70;99.90;;;;;;2585599;54;20850;31
2023/07/26 11:21:35;;;;;;;5.07;1.45;;;19.70;99.90;;;;;;2604413;47;20085;31
2023/07/26 11:24:10;;;;;;;2.90;0.90;;;19.70;99.90;;;;;;2585746;54;20112;31
2023/07/26 11:26:48;;;;;;;5.47;1.67;;;19.70;99.90;;;;;;2585728;54;20001;31
2023/07/26 11:29:26;;;;;;;8.25;2.45;;;19.80;99.90;;;;;;2585454;54;20978;31
2023/07/26 11:32:03;;;;;;;4.63;1.50;;;19.80;99.90;;;;;;2585507;54;20633;31
2023/07/26 11:34:42;;;;;;;9.50;1.48;;;19.90;99.90;;;;;;2585857;54;20239;31
2023/07/26 11:37:20;;;;;;;5.77;2.53;;;20.10;99.90;;;;;;2586223;47;20826;31
2023/07/26 11:40:05;;;;;;;4.05;1.10;;;20.30;99.90;;;;;;2603782;47;20831;31
2023/07/26 11:42:39;;;;;;;4.25;0.88;;;20.60;99.90;;;;;;2586038;54;20112;31
2023/07/26 11:45:12;;;;;;;6.90;1.05;;;20.70;99.90;;;;;;2595830;46;20027;31
2023/07/26 11:47:48;;;;;;;5.45;0.98;;;20.80;99.90;;;;;;2586319;54;20057;31
2023/07/26 11:50:26;;;;;;;4.80;1.20;;;20.90;99.90;;;;;;2586546;54;20867;31
2023/07/26 11:53:19;;;;;;;4.38;1.55;;;20.90;99.90;;;;;;2586248;54;20029;31
2023/07/26 11:56:10;;;;;;;4.88;0.93;;;20.80;99.90;;;;;;2690314;39;21414;31
2023/07/26 11:58:48;;;;;;;2.85;0.90;;;20.80;99.90;;;;;;2593099;54;20019;31
2023/07/26 12:01:25;;;;;;;2.30;1.05;;;20.90;99.90;;;;;;2586807;54;21735;31
2023/07/26 12:04:00;;;;;;;4.28;1.00;;;21.00;99.90;;;;;;2586312;54;20050;31
2023/07/26 12:06:35;;;;;;;4.33;0.97;;;20.90;99.90;;;;;;2586106;54;20045;31
2023/07/26 12:09:16;;;;;;;2.80;0.90;;;20.80;99.90;;;;;;2585447;54;20509;31
2023/07/26 12:11:53;;;;;;;4.30;1.35;;;20.60;99.90;;;;;;2586763;54;20874;31
2023/07/26 12:14:28;;;;;;;5.90;1.60;;;20.40;99.90;;;;;;2586361;54;21452;31
2023/07/26 12:17:06;;;;;;;6.17;0.90;;;20.20;99.90;;;;;;2586515;54;20053;31
2023/07/26 12:19:47;;;;;;;5.33;1.13;;;20.10;99.90;;;;;;2586278;54;20844;31
2023/07/26 12:22:24;;;;;;;6.05;1.55;;;20.10;99.90;;;;;;2585975;54;20027;31
2023/07/26 12:25:05;;;;;;;3.45;0.90;;;20.20;99.90;;;;;;2591222;46;20836;31
2023/07/26 12:27:42;;;;;;;5.90;1.40;;;20.10;99.90;;;;;;2585447;54;20046;31
2023/07/26 12:30:19;;;;;;;4.43;0.90;;;20.10;99.90;;;;;;2585296;54;20033;31
2023/07/26 12:33:11;;;;;;;3.75;1.00;;;20.10;99.90;;;;;;2586460;54;20028;31
2023/07/26 12:35:47;;;;;;;3.55;0.90;;;19.90;99.90;;;;;;2586237;54;20863;31
2023/07/26 12:38:25;;;;;;;3.57;1.03;;;19.80;99.90;;;;;;2604980;46;20855;31
2023/07/26 12:41:04;;;;;;;3.50;0.70;;;19.70;99.90;;;;;;2586352;54;20898;31
2023/07/26 12:43:37;;;;;;;4.15;0.70;;;19.70;99.90;;;;;;2586452;54;20929;31
2023/07/26 12:46:15;;;;;;;3.92;0.82;;;19.60;99.90;;;;;;2586137;54;20023;31
2023/07/26 12:48:50;;;;;;;2.35;0.60;;;19.50;99.90;;;;;;2586465;54;21504;31
2023/07/26 12:51:24;;;;;;;3.83;0.90;;;19.50;99.90;;;;;;2586490;54;20022;31
2023/07/26 12:54:02;;;;;;;3.45;0.70;;;19.60;99.90;;;;;;2586239;54;20026;31
2023/07/26 12:56:42;;;;;;;4.28;0.88;;;19.70;99.90;;;;;;2586184;54;20900;31
2023/07/26 12:59:17;;;;;;;6.05;1.02;;;19.70;99.90;;;;;;2596580;39;20361;31
2023/07/26 13:01:52;;;;;;;3.10;0.60;;;19.70;99.90;;;;;;2586284;54;20735;31
2023/07/26 13:04:27;;;;;;;2.70;0.60;;;19.70;99.90;;;;;;2697448;39;21456;31
2023/07/26 13:07:00;;;;;;;2.75;0.70;;;19.70;99.90;;;;;;2586307;54;20085;31
2023/07/26 13:09:37;;;;;;;1.70;0.57;;;19.70;99.90;;;;;;2586349;54;20086;31
2023/07/26 13:12:16;;;;;;;4.43;0.85;;;19.80;99.90;;;;;;2592056;46;20032;31
2023/07/26 13:14:54;;;;;;;1.90;0.50;;;19.80;99.90;;;;;;2586033;54;20632;31
2023/07/26 13:17:27;;;;;;;3.10;0.70;;;19.80;99.90;;;;;;2586301;54;21673;31
2023/07/26 13:20:06;;;;;;;3.00;0.70;;;19.90;99.90;;;;;;2586107;54;20855;31
2023/07/26 13:22:40;;;;;;;3.95;0.80;;;19.90;99.90;;;;;;2585295;54;20568;31
2023/07/26 13:25:17;;;;;;;3.10;0.70;;;20.10;99.90;;;;;;2586264;54;20029;31
2023/07/26 13:27:55;;;;;;;3.23;0.60;;;20.30;99.90;;;;;;2585831;46;20916;31
2023/07/26 13:30:31;;;;;;;2.20;0.70;;;20.50;99.90;;;;;;2586075;54;20835;31
2023/07/26 13:33:06;;;;;;;3.90;0.70;;;20.60;99.90;;;;;;2594740;46;20971;31
2023/07/26 13:35:43;;;;;;;6.40;0.70;;;20.70;99.90;;;;;;2604599;46;21529;31
2023/07/26 13:38:19;;;;;;;2.40;0.70;;;20.80;99.90;;;;;;2585077;54;20081;31
2023/07/26 13:40:54;;;;;;;1.90;0.73;;;20.90;99.90;;;;;;2586181;54;20768;31
2023/07/26 13:43:32;;;;;;;2.63;0.70;;;21.00;99.90;;;;;;2586258;54;20105;31
2023/07/26 13:46:08;;;;;;;4.22;0.77;;;21.10;99.90;;;;;;2586266;54;20851;31
2023/07/26 13:49:02;;;;;;;;;;;21.10;99.90;;;;;;2586548;54;20756;31
2023/07/26 13:51:39;;;;;;;1.67;0.53;;;21.10;99.90;;;;;;2755321;31;21451;31
2023/07/26 13:54:13;;;;;;;2.67;0.73;;;21.00;99.90;;;;;;2595692;46;20540;31
2023/07/26 13:56:48;;;;;;;4.30;1.47;;;21.00;99.90;;;;;;2586157;54;20031;31
2023/07/26 13:59:25;;;;;;;3.00;0.85;;;20.90;99.90;;;;;;2586064;54;20838;31
2023/07/26 14:02:01;;;;;;;7.93;1.48;;;20.80;99.90;;;;;;2586171;54;20034;31
2023/07/26 14:04:39;;;;;;;2.83;0.63;;;20.80;99.90;;;;;;2585735;54;20920;31
2023/07/26 14:07:15;;;;;;;3.35;0.60;;;20.80;99.90;;;;;;2586052;54;20948;31
2023/07/26 14:09:53;;;;;;;2.30;0.67;;;20.80;99.90;;;;;;2585806;54;20775;31
2023/07/26 14:12:28;;;;;;;3.60;0.80;;;20.80;99.90;;;;;;2585914;54;20846;31
2023/07/26 14:15:05;;;;;;;2.05;0.70;;;20.70;99.90;;;;;;2585966;54;20864;31
2023/07/26 14:17:37;;;;;;;4.07;1.05;;;20.80;99.90;;;;;;2585949;54;20023;31
2023/07/26 14:20:10;;;;;;;4.75;0.70;;;20.80;99.90;;;;;;2586001;54;20029;31
2023/07/26 14:22:43;;;;;;;4.97;1.00;;;20.90;99.90;;;;;;2585964;54;20894;31
2023/07/26 14:25:19;;;;;;;2.20;0.60;;;21.00;99.90;;;;;;2585109;54;20097;31
2023/07/26 14:27:52;;;;;;;;;;;21.20;99.90;;;;;;2586426;54;21138;31
2023/07/26 14:30:29;;;;;;;2.27;0.80;;;21.40;99.90;;;;;;2604055;46;19958;31
2023/07/26 14:33:02;;;;;;;2.58;0.80;;;21.50;99.90;;;;;;2586246;54;20859;31